Time;durP1;ratioP1;P1;durP2;ratioP2;P2;SDS_P1;SDS_P2;PMS_P1;PMS_P2;Temp;Humidity;BMP_temperature;BMP_pressure;BME280_temperature;BME280_humidity;BME280_pressure;Samples;Min_cycle;Max_cycle;Signal;HPM_P1;HPM_P2
2022/10/21 00:02:15;;;;;;;26.95;17.08;;;;;;;;;;5101129;28;20610;-62
2022/10/21 00:04:41;;;;;;;32.67;17.65;;;;;;;;;;5103602;27;20058;-62
2022/10/21 00:07:07;;;;;;;32.78;17.80;;;;;;;;;;5101219;27;20057;-61
2022/10/21 00:09:34;;;;;;;31.15;18.63;;;;;;;;;;5099935;27;20051;-62
2022/10/21 00:12:00;;;;;;;33.35;18.85;;;;;;;;;;5101933;27;20059;-61
2022/10/21 00:14:27;;;;;;;28.98;17.27;;;;;;;;;;5103192;27;20052;-60
2022/10/21 00:16:53;;;;;;;35.20;17.48;;;;;;;;;;5104482;27;20606;-62
2022/10/21 00:19:20;;;;;;;33.90;17.90;;;;;;;;;;5101500;27;20044;-62
2022/10/21 00:21:46;;;;;;;33.05;17.42;;;;;;;;;;5084893;28;20054;-61
2022/10/21 00:24:12;;;;;;;36.60;18.50;;;;;;;;;;5092432;28;20104;-62
2022/10/21 00:26:38;;;;;;;33.92;17.83;;;;;;;;;;5105016;28;20082;-61
2022/10/21 00:29:05;;;;;;;29.80;16.85;;;;;;;;;;5105345;27;20527;-61
2022/10/21 00:31:32;;;;;;;36.65;17.23;;;;;;;;;;5099300;27;20053;-61
2022/10/21 00:33:59;;;;;;;33.50;17.70;;;;;;;;;;5101025;27;20048;-63
2022/10/21 00:36:25;;;;;;;33.67;17.83;;;;;;;;;;5104149;28;20379;-60
2022/10/21 00:38:51;;;;;;;31.02;18.50;;;;;;;;;;5101543;27;20060;-61
2022/10/21 00:41:18;;;;;;;29.67;17.35;;;;;;;;;;5084824;28;20361;-61
2022/10/21 00:43:55;;;;;;;33.83;17.50;;;;;;;;;;5094686;28;20087;-61
2022/10/21 00:46:27;;;;;;;29.52;17.20;;;;;;;;;;5095596;28;20048;-61
2022/10/21 00:48:57;;;;;;;27.70;17.85;;;;;;;;;;5102036;27;20045;-62
2022/10/21 00:51:23;;;;;;;33.33;17.63;;;;;;;;;;5112485;27;20439;-61
2022/10/21 00:53:50;;;;;;;28.92;17.67;;;;;;;;;;5120278;27;20048;-61
2022/10/21 00:56:27;;;;;;;30.98;18.30;;;;;;;;;;5102815;27;20650;-62
2022/10/21 00:58:56;;;;;;;38.13;19.15;;;;;;;;;;5109457;27;20463;-61
2022/10/21 01:01:23;;;;;;;32.50;17.80;;;;;;;;;;5111015;27;20545;-61
2022/10/21 01:03:50;;;;;;;31.70;17.58;;;;;;;;;;5087410;28;20044;-62
2022/10/21 01:06:18;;;;;;;32.67;17.77;;;;;;;;;;5103264;28;20635;-62
2022/10/21 01:08:45;;;;;;;34.72;19.15;;;;;;;;;;5101928;27;20143;-61
2022/10/21 01:11:13;;;;;;;34.15;17.65;;;;;;;;;;5108629;27;20512;-62
2022/10/21 01:13:58;;;;;;;29.85;17.85;;;;;;;;;;5104752;27;20336;-61
2022/10/21 01:16:30;;;;;;;31.87;18.27;;;;;;;;;;5104599;28;20052;-63
2022/10/21 01:18:57;;;;;;;33.70;17.85;;;;;;;;;;5112301;27;20047;-62
2022/10/21 01:21:56;;;;;;;36.13;18.40;;;;;;;;;;5101222;27;20052;-61
2022/10/21 01:24:34;;;;;;;40.90;17.67;;;;;;;;;;5037313;28;20057;-62
2022/10/21 01:27:00;;;;;;;29.40;17.17;;;;;;;;;;5039927;28;20057;-61
2022/10/21 01:29:27;;;;;;;32.45;17.98;;;;;;;;;;5040469;28;20046;-62
2022/10/21 01:32:05;;;;;;;23.08;15.48;;;;;;;;;;5039454;28;20154;-61
2022/10/21 01:34:34;;;;;;;33.97;18.30;;;;;;;;;;5038446;28;20053;-62
2022/10/21 01:37:07;;;;;;;29.35;16.50;;;;;;;;;;5038227;28;20053;-62
2022/10/21 01:39:52;;;;;;;32.15;16.55;;;;;;;;;;5046766;28;20054;-62
2022/10/21 01:42:38;;;;;;;39.47;18.27;;;;;;;;;;5039925;28;20101;-61
2022/10/21 01:45:11;;;;;;;37.00;17.70;;;;;;;;;;5017244;28;20050;-62
2022/10/21 01:47:40;;;;;;;29.15;17.30;;;;;;;;;;5020429;28;20105;-62
2022/10/21 01:50:15;;;;;;;35.20;18.10;;;;;;;;;;5040180;28;20051;-61
2022/10/21 01:52:43;;;;;;;37.22;19.10;;;;;;;;;;5033768;28;20076;-61
2022/10/21 01:55:13;;;;;;;39.42;17.73;;;;;;;;;;5035783;28;20456;-62
2022/10/21 01:57:42;;;;;;;31.35;18.17;;;;;;;;;;5040473;28;20526;-62
2022/10/21 02:00:09;;;;;;;39.05;18.33;;;;;;;;;;5069535;28;20063;-61
2022/10/21 02:02:41;;;;;;;38.30;18.00;;;;;;;;;;5092246;28;20417;-62
2022/10/21 02:05:16;;;;;;;37.78;19.38;;;;;;;;;;5111261;27;20054;-61
2022/10/21 02:07:43;;;;;;;39.53;19.88;;;;;;;;;;5107534;27;20437;-62
2022/10/21 02:10:09;;;;;;;39.70;19.73;;;;;;;;;;5089111;27;20044;-62
2022/10/21 02:12:38;;;;;;;38.33;18.48;;;;;;;;;;5112751;27;20055;-62
2022/10/21 02:15:06;;;;;;;37.70;19.45;;;;;;;;;;5112131;27;20056;-61
2022/10/21 02:17:34;;;;;;;37.38;18.40;;;;;;;;;;5120701;27;20052;-63
2022/10/21 02:20:02;;;;;;;35.67;19.60;;;;;;;;;;5105588;27;20505;-61
2022/10/21 02:22:29;;;;;;;40.95;19.88;;;;;;;;;;5102766;27;20106;-61
2022/10/21 02:25:01;;;;;;;39.70;18.45;;;;;;;;;;5103963;27;20634;-62
2022/10/21 02:27:28;;;;;;;36.47;18.70;;;;;;;;;;5099140;27;20182;-61
2022/10/21 02:29:55;;;;;;;38.50;18.90;;;;;;;;;;5097697;27;20471;-62
2022/10/21 02:32:33;;;;;;;45.78;19.00;;;;;;;;;;5092279;27;20843;-61
2022/10/21 02:35:19;;;;;;;40.38;19.23;;;;;;;;;;5088797;27;20124;-60
2022/10/21 02:37:52;;;;;;;33.75;17.25;;;;;;;;;;5085743;28;20041;-61
2022/10/21 02:40:48;;;;;;;33.35;17.63;;;;;;;;;;5086610;27;20067;-61
2022/10/21 02:43:15;;;;;;;;;;;;;;;;;;5080670;27;20626;-61
2022/10/21 02:45:44;;;;;;;33.58;17.52;;;;;;;;;;5086414;28;42713;-61
2022/10/21 02:48:10;;;;;;;40.10;19.10;;;;;;;;;;5099165;27;20408;-62
2022/10/21 02:50:37;;;;;;;38.83;19.42;;;;;;;;;;5099792;27;20048;-61
2022/10/21 02:53:03;;;;;;;33.97;18.80;;;;;;;;;;5101476;27;20059;-61
2022/10/21 02:55:29;;;;;;;52.15;19.08;;;;;;;;;;5102414;27;20052;-61
2022/10/21 02:57:56;;;;;;;37.10;20.08;;;;;;;;;;5114958;27;20063;-61
2022/10/21 03:00:22;;;;;;;31.17;17.83;;;;;;;;;;5087601;28;20052;-62
2022/10/21 03:02:48;;;;;;;33.03;19.65;;;;;;;;;;5101166;27;20056;-61
2022/10/21 03:05:15;;;;;;;30.98;18.55;;;;;;;;;;5097446;27;20040;-62
2022/10/21 03:07:42;;;;;;;31.48;17.85;;;;;;;;;;5101686;27;20052;-61
2022/10/21 03:10:08;;;;;;;39.25;18.00;;;;;;;;;;5102350;27;20055;-62
2022/10/21 03:12:34;;;;;;;35.55;18.45;;;;;;;;;;5102115;27;20050;-61
2022/10/21 03:15:01;;;;;;;35.78;18.17;;;;;;;;;;5100532;27;20086;-61
2022/10/21 03:17:28;;;;;;;35.90;18.65;;;;;;;;;;5102174;27;20678;-60
2022/10/21 03:19:54;;;;;;;35.33;18.90;;;;;;;;;;5106019;27;20052;-61
2022/10/21 03:22:20;;;;;;;32.58;18.83;;;;;;;;;;5102312;28;20056;-61
2022/10/21 03:24:46;;;;;;;36.25;18.38;;;;;;;;;;5099277;27;20224;-62
2022/10/21 03:27:13;;;;;;;35.30;18.02;;;;;;;;;;5082439;28;20064;-62
2022/10/21 03:29:39;;;;;;;32.22;18.17;;;;;;;;;;5096423;27;20502;-61
2022/10/21 03:32:05;;;;;;;33.00;18.67;;;;;;;;;;5102491;27;20103;-61
2022/10/21 03:34:32;;;;;;;35.95;18.33;;;;;;;;;;5101874;27;20822;-61
2022/10/21 03:36:58;;;;;;;48.70;18.35;;;;;;;;;;5083153;27;20053;-60
2022/10/21 03:39:24;;;;;;;38.70;19.05;;;;;;;;;;5090326;27;20512;-61
2022/10/21 03:41:50;;;;;;;32.40;19.27;;;;;;;;;;5101747;27;20052;-62
2022/10/21 03:44:17;;;;;;;32.35;17.83;;;;;;;;;;5089583;27;20048;-62
2022/10/21 03:46:43;;;;;;;34.50;17.52;;;;;;;;;;5123357;27;20059;-62
2022/10/21 03:49:10;;;;;;;31.35;18.05;;;;;;;;;;5109844;27;20071;-63
2022/10/21 03:51:46;;;;;;;33.92;18.02;;;;;;;;;;5101973;27;20052;-62
2022/10/21 03:54:12;;;;;;;29.20;18.13;;;;;;;;;;5084942;27;20064;-61
2022/10/21 03:56:39;;;;;;;31.88;18.83;;;;;;;;;;5117200;27;20051;-61
2022/10/21 03:59:05;;;;;;;28.38;17.55;;;;;;;;;;5088688;27;20049;-61
2022/10/21 04:01:31;;;;;;;39.05;16.50;;;;;;;;;;5081796;27;20102;-61
2022/10/21 04:03:57;;;;;;;37.38;18.13;;;;;;;;;;5099649;27;20054;-61
2022/10/21 04:06:24;;;;;;;35.80;18.38;;;;;;;;;;5099855;27;20063;-62
2022/10/21 04:08:50;;;;;;;30.13;17.48;;;;;;;;;;5082439;27;20061;-62
2022/10/21 04:11:16;;;;;;;29.45;16.95;;;;;;;;;;5090595;28;20860;-61
2022/10/21 04:13:43;;;;;;;35.25;18.15;;;;;;;;;;5099233;27;20052;-61
2022/10/21 04:16:13;;;;;;;33.08;17.33;;;;;;;;;;5102795;27;20542;-61
2022/10/21 04:18:40;;;;;;;36.53;16.77;;;;;;;;;;5099138;27;20559;-61
2022/10/21 04:21:07;;;;;;;32.55;17.50;;;;;;;;;;5101082;27;20048;-62
2022/10/21 04:23:34;;;;;;;27.77;16.95;;;;;;;;;;5088567;27;20059;-61
2022/10/21 04:26:00;;;;;;;32.30;17.20;;;;;;;;;;5097654;27;20056;-62
2022/10/21 04:28:27;;;;;;;31.75;17.65;;;;;;;;;;5090730;27;20106;-62
2022/10/21 04:30:53;;;;;;;31.83;17.33;;;;;;;;;;5095578;27;20044;-61
2022/10/21 04:33:20;;;;;;;33.17;18.00;;;;;;;;;;5083877;27;20055;-62
2022/10/21 04:35:46;;;;;;;29.45;17.23;;;;;;;;;;5095599;27;20140;-61
2022/10/21 04:38:12;;;;;;;35.22;17.33;;;;;;;;;;5098184;27;20089;-62
2022/10/21 04:40:39;;;;;;;30.73;17.30;;;;;;;;;;5098503;27;20537;-62
2022/10/21 04:43:05;;;;;;;33.90;17.77;;;;;;;;;;5100838;27;20052;-62
2022/10/21 04:45:32;;;;;;;34.03;17.45;;;;;;;;;;5100757;27;20498;-62
2022/10/21 04:47:58;;;;;;;31.05;17.40;;;;;;;;;;5100301;27;20047;-62
2022/10/21 04:50:24;;;;;;;33.33;18.10;;;;;;;;;;5105744;27;20063;-61
2022/10/21 04:52:50;;;;;;;31.30;17.95;;;;;;;;;;5114459;27;20056;-61
2022/10/21 04:55:17;;;;;;;33.90;17.13;;;;;;;;;;5101548;27;20414;-62
2022/10/21 04:57:43;;;;;;;28.85;16.42;;;;;;;;;;5101000;27;20059;-63
2022/10/21 05:00:10;;;;;;;34.42;18.08;;;;;;;;;;5101116;27;20099;-62
2022/10/21 05:02:36;;;;;;;31.88;17.02;;;;;;;;;;5097225;27;20514;-62
2022/10/21 05:05:03;;;;;;;28.08;16.48;;;;;;;;;;5095537;27;20059;-62
2022/10/21 05:07:29;;;;;;;31.15;17.00;;;;;;;;;;5098619;27;20078;-61
2022/10/21 05:09:56;;;;;;;29.10;15.30;;;;;;;;;;5100404;27;20052;-62
2022/10/21 05:12:23;;;;;;;25.33;15.50;;;;;;;;;;5104790;27;20052;-61
2022/10/21 05:14:49;;;;;;;29.92;16.33;;;;;;;;;;5092397;27;20060;-61
2022/10/21 05:17:16;;;;;;;32.45;16.08;;;;;;;;;;5102798;27;20048;-61
2022/10/21 05:19:42;;;;;;;24.05;14.85;;;;;;;;;;5106981;27;20075;-61
2022/10/21 05:22:10;;;;;;;38.08;16.27;;;;;;;;;;5094601;27;20055;-61
2022/10/21 05:24:36;;;;;;;26.55;15.70;;;;;;;;;;5093433;27;20063;-61
2022/10/21 05:27:02;;;;;;;28.02;15.07;;;;;;;;;;5095263;27;20083;-61
2022/10/21 05:29:29;;;;;;;25.58;15.35;;;;;;;;;;5097518;27;20522;-62
2022/10/21 05:31:55;;;;;;;28.65;14.50;;;;;;;;;;5100486;27;20059;-62
2022/10/21 05:34:21;;;;;;;28.08;15.65;;;;;;;;;;5098042;27;20595;-62
2022/10/21 05:36:48;;;;;;;26.80;14.68;;;;;;;;;;5107135;27;20047;-62
2022/10/21 05:39:14;;;;;;;29.38;15.50;;;;;;;;;;5093518;27;20510;-62
2022/10/21 05:41:40;;;;;;;27.17;15.45;;;;;;;;;;5097573;27;20052;-61
2022/10/21 05:44:13;;;;;;;28.00;14.45;;;;;;;;;;5099302;27;20058;-61
2022/10/21 05:46:39;;;;;;;24.45;14.77;;;;;;;;;;5096141;27;20056;-61
2022/10/21 05:49:06;;;;;;;29.83;14.48;;;;;;;;;;5097123;27;20052;-61
2022/10/21 05:51:32;;;;;;;33.85;15.63;;;;;;;;;;5099047;27;20647;-62
2022/10/21 05:53:59;;;;;;;26.92;14.75;;;;;;;;;;5096381;27;20059;-61
2022/10/21 05:56:25;;;;;;;30.48;14.25;;;;;;;;;;5094479;27;20047;-63
2022/10/21 05:58:51;;;;;;;28.58;15.40;;;;;;;;;;5102700;27;20055;-62
2022/10/21 06:01:18;;;;;;;29.15;14.23;;;;;;;;;;5096540;27;20098;-62
2022/10/21 06:03:44;;;;;;;28.27;13.80;;;;;;;;;;5097076;27;20075;-61
2022/10/21 06:06:10;;;;;;;25.60;13.68;;;;;;;;;;5094404;27;20101;-62
2022/10/21 06:08:38;;;;;;;26.00;13.00;;;;;;;;;;5092566;27;20121;-61
2022/10/21 06:11:04;;;;;;;25.02;12.77;;;;;;;;;;5095836;27;20052;-61
2022/10/21 06:13:31;;;;;;;21.15;12.32;;;;;;;;;;5094658;27;20052;-62
2022/10/21 06:15:58;;;;;;;27.45;12.55;;;;;;;;;;5090768;27;20125;-61
2022/10/21 06:18:25;;;;;;;20.08;11.98;;;;;;;;;;5095824;27;20052;-62
2022/10/21 06:20:51;;;;;;;22.23;12.27;;;;;;;;;;5094186;27;20051;-62
2022/10/21 06:23:17;;;;;;;20.95;11.93;;;;;;;;;;5095633;27;20052;-61
2022/10/21 06:25:53;;;;;;;20.88;12.25;;;;;;;;;;5097006;27;20445;-62
2022/10/21 06:28:20;;;;;;;23.67;12.00;;;;;;;;;;5102274;28;20048;-62
2022/10/21 06:30:46;;;;;;;18.80;11.18;;;;;;;;;;5102442;27;20059;-61
2022/10/21 06:33:12;;;;;;;18.55;11.23;;;;;;;;;;5100348;27;20589;-61
2022/10/21 06:35:39;;;;;;;22.00;11.50;;;;;;;;;;5101498;27;20839;-61
2022/10/21 06:38:05;;;;;;;29.02;12.02;;;;;;;;;;5087970;27;20052;-62
2022/10/21 06:40:31;;;;;;;21.10;10.90;;;;;;;;;;5099576;27;20613;-61
2022/10/21 06:42:57;;;;;;;19.00;11.07;;;;;;;;;;5082717;28;20055;-62
2022/10/21 06:45:24;;;;;;;18.55;11.57;;;;;;;;;;5088388;28;20056;-61
2022/10/21 06:47:50;;;;;;;27.35;12.73;;;;;;;;;;5093177;27;20051;-62
2022/10/21 06:50:17;;;;;;;19.40;12.93;;;;;;;;;;5106490;27;20087;-61
2022/10/21 06:52:43;;;;;;;26.52;11.90;;;;;;;;;;5101983;27;20059;-61
2022/10/21 06:55:09;;;;;;;19.00;12.60;;;;;;;;;;5104579;27;20063;-61
2022/10/21 06:57:36;;;;;;;21.48;11.48;;;;;;;;;;5102664;27;20916;-61
2022/10/21 07:00:03;;;;;;;25.55;12.25;;;;;;;;;;5105471;27;20129;-62
2022/10/21 07:02:29;;;;;;;22.17;14.00;;;;;;;;;;5103346;27;20048;-60
2022/10/21 07:04:56;;;;;;;23.13;13.63;;;;;;;;;;5102949;27;20056;-61
2022/10/21 07:07:23;;;;;;;24.33;12.00;;;;;;;;;;5103439;27;20048;-62
2022/10/21 07:09:50;;;;;;;20.58;12.55;;;;;;;;;;5102933;27;20532;-62
2022/10/21 07:12:16;;;;;;;23.77;11.88;;;;;;;;;;5097758;27;20053;-60
2022/10/21 07:14:43;;;;;;;21.67;12.77;;;;;;;;;;5082525;28;20048;-61
2022/10/21 07:17:09;;;;;;;19.60;11.70;;;;;;;;;;5082017;28;20056;-61
2022/10/21 07:19:35;;;;;;;16.52;11.13;;;;;;;;;;5093941;27;20052;-60
2022/10/21 07:22:02;;;;;;;23.00;11.68;;;;;;;;;;5103417;27;20614;-62
2022/10/21 07:24:28;;;;;;;20.38;11.43;;;;;;;;;;5101626;27;20052;-61
2022/10/21 07:26:54;;;;;;;22.75;11.73;;;;;;;;;;5100685;27;20048;-61
2022/10/21 07:29:21;;;;;;;23.70;13.25;;;;;;;;;;5089930;27;20044;-61
2022/10/21 07:31:47;;;;;;;28.27;13.25;;;;;;;;;;5093536;27;20522;-60
2022/10/21 07:34:14;;;;;;;27.65;14.13;;;;;;;;;;5099259;27;20059;-61
2022/10/21 07:36:42;;;;;;;23.65;12.50;;;;;;;;;;5099156;27;20048;-61
2022/10/21 07:39:11;;;;;;;29.88;13.38;;;;;;;;;;5098697;27;20052;-60
2022/10/21 07:41:43;;;;;;;20.13;12.93;;;;;;;;;;5102139;28;20055;-62
2022/10/21 07:44:10;;;;;;;23.85;13.10;;;;;;;;;;5101516;27;20303;-63
2022/10/21 07:46:37;;;;;;;22.65;13.80;;;;;;;;;;5116641;27;20052;-61
2022/10/21 07:49:03;;;;;;;22.73;13.45;;;;;;;;;;5112937;27;20051;-61
2022/10/21 07:51:30;;;;;;;20.98;12.13;;;;;;;;;;5104870;27;20496;-63
2022/10/21 07:53:57;;;;;;;19.85;11.75;;;;;;;;;;5102660;27;20045;-62
2022/10/21 07:56:29;;;;;;;20.73;12.60;;;;;;;;;;5100028;27;20414;-61
2022/10/21 07:58:55;;;;;;;19.83;11.23;;;;;;;;;;5102558;27;20058;-62
2022/10/21 08:01:22;;;;;;;25.48;12.95;;;;;;;;;;5099320;27;20041;-62
2022/10/21 08:03:48;;;;;;;24.48;13.68;;;;;;;;;;5094965;28;20052;-61
2022/10/21 08:06:16;;;;;;;26.77;12.93;;;;;;;;;;5081867;28;20764;-61
2022/10/21 08:08:42;;;;;;;23.88;12.82;;;;;;;;;;5099780;27;20056;-62
2022/10/21 08:11:09;;;;;;;21.63;12.88;;;;;;;;;;5122677;27;20056;-61
2022/10/21 08:13:36;;;;;;;31.35;14.32;;;;;;;;;;5121583;27;20052;-62
2022/10/21 08:16:03;;;;;;;25.15;13.70;;;;;;;;;;5122742;27;20059;-62
2022/10/21 08:18:30;;;;;;;20.83;12.30;;;;;;;;;;5122620;27;20505;-61
2022/10/21 08:20:56;;;;;;;19.65;11.90;;;;;;;;;;5122965;27;20047;-61
2022/10/21 08:23:23;;;;;;;20.20;12.63;;;;;;;;;;5122325;27;20158;-61
2022/10/21 08:25:51;;;;;;;21.05;12.18;;;;;;;;;;5120358;27;20048;-61
2022/10/21 08:28:18;;;;;;;20.80;12.75;;;;;;;;;;5122949;27;20052;-62
2022/10/21 08:30:44;;;;;;;33.13;12.23;;;;;;;;;;5122400;27;20364;-61
2022/10/21 08:33:11;;;;;;;21.38;11.02;;;;;;;;;;5122302;27;20056;-62
2022/10/21 08:35:38;;;;;;;24.55;11.25;;;;;;;;;;5123792;27;20105;-62
2022/10/21 08:38:04;;;;;;;18.23;11.20;;;;;;;;;;5126168;27;20674;-62
2022/10/21 08:40:37;;;;;;;19.02;10.30;;;;;;;;;;5113603;27;20067;-61
2022/10/21 08:43:07;;;;;;;24.65;11.60;;;;;;;;;;5119223;27;20494;-62
2022/10/21 08:45:34;;;;;;;27.88;12.35;;;;;;;;;;5114799;27;20082;-62
2022/10/21 08:48:03;;;;;;;24.10;12.02;;;;;;;;;;5105135;27;20060;-62
2022/10/21 08:50:40;;;;;;;22.08;13.02;;;;;;;;;;5105453;27;20051;-62
2022/10/21 08:53:29;;;;;;;18.67;11.50;;;;;;;;;;5104368;27;20518;-61
2022/10/21 08:55:59;;;;;;;20.50;10.70;;;;;;;;;;5085411;28;20052;-61
2022/10/21 08:58:25;;;;;;;19.20;11.70;;;;;;;;;;5084789;28;20582;-61
2022/10/21 09:01:01;;;;;;;21.73;11.80;;;;;;;;;;5084942;28;20041;-60
2022/10/21 09:03:45;;;;;;;24.83;12.18;;;;;;;;;;5084081;28;20500;-62
2022/10/21 09:06:12;;;;;;;25.80;12.15;;;;;;;;;;5084402;28;20053;-61
2022/10/21 09:08:47;;;;;;;19.35;12.13;;;;;;;;;;5101570;27;20074;-61
2022/10/21 09:11:30;;;;;;;16.85;11.15;;;;;;;;;;5125599;27;20051;-61
2022/10/21 09:14:05;;;;;;;20.85;12.05;;;;;;;;;;5126506;27;20544;-61
2022/10/21 09:16:31;;;;;;;24.38;11.07;;;;;;;;;;5125153;27;20055;-61
2022/10/21 09:18:57;;;;;;;23.17;11.50;;;;;;;;;;5125828;27;20051;-61
2022/10/21 09:21:36;;;;;;;22.88;11.68;;;;;;;;;;5125235;27;20051;-62
2022/10/21 09:24:11;;;;;;;20.42;11.23;;;;;;;;;;5102357;27;20506;-61
2022/10/21 09:26:40;;;;;;;21.10;11.88;;;;;;;;;;5101888;27;20158;-60
2022/10/21 09:29:19;;;;;;;21.90;10.48;;;;;;;;;;5112624;27;20044;-61
2022/10/21 09:31:46;;;;;;;24.05;11.60;;;;;;;;;;5106855;27;20058;-60
2022/10/21 09:34:26;;;;;;;22.90;11.37;;;;;;;;;;5102349;27;20121;-61
2022/10/21 09:36:53;;;;;;;16.23;11.38;;;;;;;;;;5104279;28;20051;-60
2022/10/21 09:39:34;;;;;;;21.67;11.18;;;;;;;;;;5103989;27;20059;-61
2022/10/21 09:42:01;;;;;;;19.17;11.48;;;;;;;;;;5102752;27;20411;-62
2022/10/21 09:44:37;;;;;;;17.40;9.95;;;;;;;;;;5105220;27;20527;-61
2022/10/21 09:47:23;;;;;;;22.40;10.52;;;;;;;;;;5103213;28;20082;-62
2022/10/21 09:49:52;;;;;;;18.85;10.55;;;;;;;;;;5104603;27;20044;-62
2022/10/21 09:52:34;;;;;;;17.02;9.52;;;;;;;;;;5104193;28;20056;-60
2022/10/21 09:55:02;;;;;;;17.55;10.13;;;;;;;;;;5101821;27;20524;-60
2022/10/21 09:57:47;;;;;;;19.38;10.38;;;;;;;;;;5117619;27;20963;-62
2022/10/21 10:00:13;;;;;;;17.37;9.90;;;;;;;;;;5110615;27;20059;-61
2022/10/21 10:02:44;;;;;;;17.80;8.95;;;;;;;;;;5114727;27;20054;-61
2022/10/21 10:05:29;;;;;;;16.63;9.23;;;;;;;;;;5104637;27;20056;-61
2022/10/21 10:07:55;;;;;;;13.68;9.65;;;;;;;;;;5123809;27;20062;-60
2022/10/21 10:10:31;;;;;;;13.00;8.98;;;;;;;;;;5107827;27;20048;-61
2022/10/21 10:12:58;;;;;;;16.98;8.68;;;;;;;;;;5103290;27;20052;-62
2022/10/21 10:15:31;;;;;;;18.48;10.00;;;;;;;;;;5099256;28;20095;-61
2022/10/21 10:17:58;;;;;;;16.58;9.75;;;;;;;;;;5101811;27;20055;-61
2022/10/21 10:20:25;;;;;;;17.10;10.15;;;;;;;;;;5103940;28;20055;-61
2022/10/21 10:22:57;;;;;;;18.83;10.77;;;;;;;;;;5104902;27;20395;-61
2022/10/21 10:25:28;;;;;;;21.75;11.13;;;;;;;;;;5103669;27;20060;-60
2022/10/21 10:28:01;;;;;;;20.00;10.55;;;;;;;;;;5096112;27;20048;-62
2022/10/21 10:30:35;;;;;;;20.50;11.13;;;;;;;;;;5109722;27;20056;-60
2022/10/21 10:33:06;;;;;;;20.50;11.90;;;;;;;;;;5101330;28;20052;-60
2022/10/21 10:35:34;;;;;;;23.02;12.35;;;;;;;;;;5114798;27;20056;-62
2022/10/21 10:38:01;;;;;;;22.60;12.88;;;;;;;;;;5098724;27;20044;-61
2022/10/21 10:40:37;;;;;;;17.80;11.23;;;;;;;;;;5099452;27;20084;-60
2022/10/21 10:43:22;;;;;;;23.75;12.18;;;;;;;;;;5083314;28;20060;-61
2022/10/21 10:45:54;;;;;;;26.23;13.05;;;;;;;;;;5099295;28;20048;-61
2022/10/21 10:48:31;;;;;;;17.70;10.95;;;;;;;;;;5102791;28;20059;-62
2022/10/21 10:50:57;;;;;;;25.38;13.70;;;;;;;;;;5101189;27;20048;-62
2022/10/21 10:53:32;;;;;;;21.80;12.05;;;;;;;;;;5103091;28;20052;-60
2022/10/21 10:56:21;;;;;;;21.45;12.43;;;;;;;;;;5096559;27;20072;-62
2022/10/21 10:59:06;;;;;;;22.25;11.75;;;;;;;;;;5099508;27;20055;-60
2022/10/21 11:01:36;;;;;;;16.23;10.90;;;;;;;;;;5101034;28;20052;-60
2022/10/21 11:04:23;;;;;;;21.63;12.52;;;;;;;;;;5102034;28;20069;-60
2022/10/21 11:06:52;;;;;;;28.05;13.70;;;;;;;;;;5097047;27;20050;-61
2022/10/21 11:09:18;;;;;;;27.80;13.38;;;;;;;;;;5102568;27;20052;-61
2022/10/21 11:11:52;;;;;;;25.55;13.90;;;;;;;;;;5112965;27;20052;-60
2022/10/21 11:14:19;;;;;;;21.63;13.25;;;;;;;;;;5109529;27;20126;-60
2022/10/21 11:16:48;;;;;;;23.13;12.13;;;;;;;;;;5100593;27;20134;-60
2022/10/21 11:19:36;;;;;;;21.83;11.95;;;;;;;;;;5099004;27;20045;-60
2022/10/21 11:22:03;;;;;;;19.15;12.63;;;;;;;;;;5101702;27;20052;-61
2022/10/21 11:24:49;;;;;;;23.35;13.30;;;;;;;;;;5101528;27;20048;-60
2022/10/21 11:27:24;;;;;;;24.92;11.00;;;;;;;;;;5098367;27;20055;-60
2022/10/21 11:29:50;;;;;;;20.43;10.30;;;;;;;;;;5102309;27;20120;-62
2022/10/21 11:32:35;;;;;;;18.33;9.63;;;;;;;;;;5101245;27;20040;-60
2022/10/21 11:35:16;;;;;;;18.20;9.97;;;;;;;;;;5102306;27;20519;-61
2022/10/21 11:37:48;;;;;;;16.77;9.73;;;;;;;;;;5090979;28;20290;-60
2022/10/21 11:40:34;;;;;;;12.10;7.85;;;;;;;;;;5087924;28;20561;-61
2022/10/21 11:43:11;;;;;;;16.20;6.75;;;;;;;;;;5093801;28;20052;-61
2022/10/21 11:45:44;;;;;;;14.07;6.65;;;;;;;;;;5099731;27;20052;-62
2022/10/21 11:48:19;;;;;;;12.82;6.60;;;;;;;;;;5101139;28;20064;-61
2022/10/21 11:51:04;;;;;;;11.35;5.43;;;;;;;;;;5101096;28;20048;-60
2022/10/21 11:53:43;;;;;;;8.20;4.70;;;;;;;;;;5096432;27;20520;-60
2022/10/21 11:56:11;;;;;;;6.00;3.83;;;;;;;;;;5103015;27;20106;-60
2022/10/21 11:58:53;;;;;;;9.23;4.60;;;;;;;;;;5098267;27;20048;-60
2022/10/21 12:01:22;;;;;;;7.90;3.90;;;;;;;;;;5099286;28;20048;-60
2022/10/21 12:04:07;;;;;;;6.80;3.67;;;;;;;;;;5099636;27;20498;-61
2022/10/21 12:06:37;;;;;;;6.72;3.25;;;;;;;;;;5101348;28;20056;-61
2022/10/21 12:09:16;;;;;;;4.05;2.72;;;;;;;;;;5110454;27;20047;-61
2022/10/21 12:11:45;;;;;;;6.65;3.08;;;;;;;;;;5105899;27;20048;-61
2022/10/21 12:14:11;;;;;;;8.52;3.10;;;;;;;;;;5100994;27;20045;-63
2022/10/21 12:16:37;;;;;;;7.35;3.20;;;;;;;;;;5100660;28;20063;-61
2022/10/21 12:19:05;;;;;;;6.78;3.25;;;;;;;;;;5105156;27;20056;-61
2022/10/21 12:21:34;;;;;;;4.00;2.63;;;;;;;;;;5104641;27;20052;-60
2022/10/21 12:24:05;;;;;;;6.63;3.17;;;;;;;;;;5105151;28;20162;-61
2022/10/21 12:26:44;;;;;;;5.28;3.08;;;;;;;;;;5103973;27;20060;-61
2022/10/21 12:29:19;;;;;;;7.72;3.08;;;;;;;;;;5105116;27;20406;-62
2022/10/21 12:31:54;;;;;;;5.70;2.95;;;;;;;;;;5085633;28;20151;-60
2022/10/21 12:34:21;;;;;;;10.70;3.92;;;;;;;;;;5100660;28;20052;-62
2022/10/21 12:36:49;;;;;;;6.72;2.90;;;;;;;;;;5104617;27;20193;-61
2022/10/21 12:39:31;;;;;;;4.38;2.78;;;;;;;;;;5104013;27;20052;-60
2022/10/21 12:42:16;;;;;;;3.28;2.50;;;;;;;;;;5104604;27;20048;-62
2022/10/21 12:44:47;;;;;;;5.63;2.78;;;;;;;;;;5104862;27;20048;-60
2022/10/21 12:47:21;;;;;;;7.10;3.25;;;;;;;;;;5098912;27;20052;-61
2022/10/21 12:50:02;;;;;;;9.37;3.23;;;;;;;;;;5097411;28;20052;-61
2022/10/21 12:52:28;;;;;;;5.07;3.03;;;;;;;;;;5104130;27;20278;-61
2022/10/21 12:54:59;;;;;;;7.85;3.30;;;;;;;;;;5104184;27;20525;-61
2022/10/21 12:57:28;;;;;;;8.85;3.10;;;;;;;;;;5103004;28;20044;-60
2022/10/21 13:00:14;;;;;;;7.80;4.00;;;;;;;;;;5104830;27;20166;-61
2022/10/21 13:03:03;;;;;;;5.90;3.45;;;;;;;;;;5104270;28;20048;-61
2022/10/21 13:05:35;;;;;;;6.47;3.38;;;;;;;;;;5103181;27;20052;-61
2022/10/21 13:08:26;;;;;;;5.90;3.33;;;;;;;;;;5103338;27;20437;-62
2022/10/21 13:11:02;;;;;;;7.95;3.58;;;;;;;;;;5103917;27;21046;-60
2022/10/21 13:13:38;;;;;;;8.70;3.45;;;;;;;;;;5105069;27;20074;-62
2022/10/21 13:16:17;;;;;;;7.80;3.30;;;;;;;;;;5103279;27;20048;-61
2022/10/21 13:18:49;;;;;;;7.50;3.22;;;;;;;;;;5102919;27;20056;-61
2022/10/21 13:21:23;;;;;;;6.13;2.90;;;;;;;;;;5103208;27;20043;-60
2022/10/21 13:23:51;;;;;;;6.18;3.65;;;;;;;;;;5103435;27;20058;-61
2022/10/21 13:26:18;;;;;;;9.02;3.17;;;;;;;;;;5104280;27;20056;-60
2022/10/21 13:29:03;;;;;;;10.55;3.22;;;;;;;;;;5102825;27;20497;-62
2022/10/21 13:31:29;;;;;;;9.27;3.97;;;;;;;;;;5103822;28;20056;-62
2022/10/21 13:33:56;;;;;;;5.97;3.17;;;;;;;;;;5102154;27;20399;-61
2022/10/21 13:36:27;;;;;;;7.47;3.38;;;;;;;;;;5107598;27;20060;-61
2022/10/21 13:38:56;;;;;;;7.97;2.95;;;;;;;;;;5102894;27;20071;-61
2022/10/21 13:41:27;;;;;;;5.35;2.60;;;;;;;;;;5103233;27;20056;-61
2022/10/21 13:43:58;;;;;;;5.35;3.28;;;;;;;;;;5099313;28;20056;-62
2022/10/21 13:46:39;;;;;;;5.88;2.97;;;;;;;;;;5101452;27;20048;-61
2022/10/21 13:49:29;;;;;;;10.45;3.22;;;;;;;;;;5102659;27;20143;-61
2022/10/21 13:51:55;;;;;;;5.85;3.40;;;;;;;;;;5103253;28;20567;-61
2022/10/21 13:54:22;;;;;;;5.35;2.83;;;;;;;;;;5106181;27;20562;-61
2022/10/21 13:56:48;;;;;;;5.00;2.72;;;;;;;;;;5107945;27;20583;-61
2022/10/21 13:59:28;;;;;;;6.18;3.40;;;;;;;;;;5101545;27;20056;-62
2022/10/21 14:01:56;;;;;;;4.82;2.75;;;;;;;;;;5102614;27;20595;-61
2022/10/21 14:04:22;;;;;;;6.90;2.60;;;;;;;;;;5102804;27;20147;-61
2022/10/21 14:06:54;;;;;;;8.43;3.20;;;;;;;;;;5101793;28;20060;-61
2022/10/21 14:09:32;;;;;;;5.82;2.60;;;;;;;;;;5100348;28;20044;-61
2022/10/21 14:12:00;;;;;;;6.35;2.72;;;;;;;;;;5102873;28;20056;-61
2022/10/21 14:14:27;;;;;;;4.78;2.67;;;;;;;;;;5102004;27;20059;-61
2022/10/21 14:16:59;;;;;;;5.75;2.63;;;;;;;;;;5102989;28;20063;-62
2022/10/21 14:19:28;;;;;;;6.20;2.72;;;;;;;;;;5102375;28;20048;-62
2022/10/21 14:21:55;;;;;;;6.28;2.22;;;;;;;;;;5102424;28;20052;-62
2022/10/21 14:24:42;;;;;;;4.45;2.47;;;;;;;;;;5114252;27;20055;-61
2022/10/21 14:27:14;;;;;;;5.75;2.15;;;;;;;;;;5102217;27;20137;-62
2022/10/21 14:29:42;;;;;;;7.03;2.50;;;;;;;;;;5103234;27;20052;-62
2022/10/21 14:32:16;;;;;;;5.80;2.45;;;;;;;;;;5116126;27;20059;-61
2022/10/21 14:35:12;;;;;;;5.63;2.85;;;;;;;;;;5108002;27;20167;-62
2022/10/21 14:37:41;;;;;;;9.73;2.90;;;;;;;;;;5090647;28;20059;-63
2022/10/21 14:40:18;;;;;;;5.72;2.58;;;;;;;;;;5100592;27;20052;-62
2022/10/21 14:42:45;;;;;;;7.25;2.75;;;;;;;;;;5091256;27;20047;-62